createdAt,value
2018-05-15T00:00:24.000Z,31
2018-05-15T00:01:24.000Z,31
2018-05-15T00:02:24.000Z,31
2018-05-15T00:03:24.000Z,31
2018-05-15T00:04:24.000Z,31
2018-05-15T00:06:24.000Z,31
2018-05-15T00:07:24.000Z,31
2018-05-15T00:08:24.000Z,32
2018-05-15T00:10:24.000Z,31
2018-05-15T00:12:24.000Z,31
2018-05-15T00:13:24.000Z,31
2018-05-15T00:14:24.000Z,31
2018-05-15T00:16:24.000Z,31
2018-05-15T00:17:24.000Z,32
2018-05-15T00:19:24.000Z,31
2018-05-15T00:20:24.000Z,32
2018-05-15T00:21:24.000Z,32
2018-05-15T00:22:24.000Z,32
2018-05-15T00:23:24.000Z,32
2018-05-15T00:24:24.000Z,32
2018-05-15T00:25:24.000Z,32
2018-05-15T00:26:24.000Z,31
2018-05-15T00:27:24.000Z,31
2018-05-15T00:28:24.000Z,31
2018-05-15T00:29:24.000Z,31
2018-05-15T00:30:24.000Z,31
2018-05-15T00:31:24.000Z,31
2018-05-15T00:32:24.000Z,31
2018-05-15T00:33:24.000Z,31
2018-05-15T00:35:24.000Z,31
2018-05-15T00:36:24.000Z,31
2018-05-15T00:38:24.000Z,31
2018-05-15T00:39:24.000Z,31
2018-05-15T00:40:24.000Z,31
2018-05-15T00:41:24.000Z,31
2018-05-15T00:43:24.000Z,31
2018-05-15T00:44:24.000Z,31
2018-05-15T00:45:24.000Z,31
2018-05-15T00:47:24.000Z,31
2018-05-15T00:48:24.000Z,31
2018-05-15T00:49:24.000Z,31
2018-05-15T00:50:24.000Z,32
2018-05-15T00:51:24.000Z,31
2018-05-15T00:53:24.000Z,31
2018-05-15T00:54:24.000Z,31
2018-05-15T00:55:24.000Z,31
2018-05-15T00:56:24.000Z,31
2018-05-15T00:57:24.000Z,31
2018-05-15T00:58:24.000Z,32
2018-05-15T00:59:24.000Z,31
2018-05-15T01:00:24.000Z,31
2018-05-15T01:01:24.000Z,31
2018-05-15T01:02:24.000Z,31
2018-05-15T01:03:24.000Z,31
2018-05-15T01:04:24.000Z,31
2018-05-15T01:05:24.000Z,31
2018-05-15T01:06:25.000Z,32
2018-05-15T01:07:25.000Z,32
2018-05-15T01:08:25.000Z,31
2018-05-15T01:09:25.000Z,31
2018-05-15T01:11:25.000Z,31
2018-05-15T01:12:25.000Z,31
2018-05-15T01:14:25.000Z,31
2018-05-15T01:16:25.000Z,31
2018-05-15T01:17:25.000Z,31
2018-05-15T01:19:25.000Z,31
2018-05-15T01:20:25.000Z,31
2018-05-15T01:21:25.000Z,32
2018-05-15T01:23:25.000Z,31
2018-05-15T01:24:25.000Z,32
2018-05-15T01:25:24.000Z,31
2018-05-15T01:26:25.000Z,31
2018-05-15T01:27:25.000Z,32
2018-05-15T01:28:24.000Z,32
2018-05-15T01:29:25.000Z,31
2018-05-15T01:30:25.000Z,31
2018-05-15T01:32:25.000Z,31
2018-05-15T01:33:25.000Z,31
2018-05-15T01:34:25.000Z,31
2018-05-15T01:35:25.000Z,31
2018-05-15T01:36:25.000Z,31
2018-05-15T01:37:25.000Z,31
2018-05-15T01:39:25.000Z,31
2018-05-15T01:40:25.000Z,31
2018-05-15T01:42:25.000Z,31
2018-05-15T01:43:25.000Z,31
2018-05-15T01:44:25.000Z,31
2018-05-15T01:45:25.000Z,31
2018-05-15T01:47:25.000Z,31
2018-05-15T01:48:25.000Z,31
2018-05-15T01:49:25.000Z,32
2018-05-15T01:51:25.000Z,31
2018-05-15T01:52:25.000Z,31
2018-05-15T01:53:25.000Z,31
2018-05-15T01:54:25.000Z,31
2018-05-15T01:56:24.000Z,31
2018-05-15T01:57:24.000Z,32
2018-05-15T01:58:24.000Z,31
2018-05-15T02:00:24.000Z,31
2018-05-15T02:01:24.000Z,31
2018-05-15T02:02:24.000Z,31
2018-05-15T02:04:24.000Z,31
2018-05-15T02:05:24.000Z,31
2018-05-15T02:06:24.000Z,31
2018-05-15T02:07:24.000Z,31
2018-05-15T02:08:24.000Z,31
2018-05-15T02:09:24.000Z,31
2018-05-15T02:10:24.000Z,31
2018-05-15T02:11:24.000Z,31
2018-05-15T02:12:24.000Z,31
2018-05-15T02:13:24.000Z,31
2018-05-15T02:14:24.000Z,31
2018-05-15T02:15:24.000Z,31
2018-05-15T02:16:24.000Z,31
2018-05-15T02:17:24.000Z,31
2018-05-15T02:18:24.000Z,31
2018-05-15T02:20:24.000Z,31
2018-05-15T02:21:24.000Z,31
2018-05-15T02:22:24.000Z,31
2018-05-15T02:24:24.000Z,31
2018-05-15T02:25:24.000Z,31
2018-05-15T02:27:24.000Z,31
2018-05-15T02:28:24.000Z,31
2018-05-15T02:29:24.000Z,31
2018-05-15T02:30:24.000Z,31
2018-05-15T02:31:24.000Z,31
2018-05-15T02:32:24.000Z,31
2018-05-15T02:34:24.000Z,31
2018-05-15T02:35:24.000Z,31
2018-05-15T02:36:24.000Z,31
2018-05-15T02:37:24.000Z,31
2018-05-15T02:38:24.000Z,31
2018-05-15T02:39:24.000Z,31
2018-05-15T02:40:24.000Z,31
2018-05-15T02:41:24.000Z,31
2018-05-15T02:43:24.000Z,31
2018-05-15T02:44:24.000Z,31
2018-05-15T02:46:24.000Z,31
2018-05-15T02:47:24.000Z,32
2018-05-15T02:48:24.000Z,31
2018-05-15T02:49:24.000Z,32
2018-05-15T02:50:24.000Z,31
2018-05-15T02:52:24.000Z,31
2018-05-15T02:53:24.000Z,31
2018-05-15T02:54:24.000Z,32
2018-05-15T02:55:24.000Z,31
2018-05-15T02:56:24.000Z,32
2018-05-15T02:57:24.000Z,31
2018-05-15T02:58:24.000Z,32
2018-05-15T02:59:25.000Z,32
2018-05-15T03:01:25.000Z,31
2018-05-15T03:02:25.000Z,31
2018-05-15T03:03:25.000Z,31
2018-05-15T03:05:25.000Z,31
2018-05-15T03:06:25.000Z,32
2018-05-15T03:07:25.000Z,32
2018-05-15T03:09:25.000Z,31
2018-05-15T03:10:25.000Z,32
2018-05-15T03:11:25.000Z,31
2018-05-15T03:12:25.000Z,32
2018-05-15T03:13:25.000Z,32
2018-05-15T03:14:25.000Z,32
2018-05-15T03:15:25.000Z,32
2018-05-15T03:16:25.000Z,32
2018-05-15T03:17:25.000Z,32
2018-05-15T03:18:25.000Z,32
2018-05-15T03:19:25.000Z,31
2018-05-15T03:20:25.000Z,31
2018-05-15T03:21:25.000Z,31
2018-05-15T03:22:25.000Z,31
2018-05-15T03:23:25.000Z,31
2018-05-15T03:24:25.000Z,32
2018-05-15T03:25:25.000Z,32
2018-05-15T03:26:25.000Z,32
2018-05-15T03:27:25.000Z,32
2018-05-15T03:28:25.000Z,31
2018-05-15T03:29:25.000Z,31
2018-05-15T03:31:25.000Z,31
2018-05-15T03:33:25.000Z,31
2018-05-15T03:34:25.000Z,31
2018-05-15T03:35:25.000Z,31
2018-05-15T03:36:25.000Z,32
2018-05-15T03:37:25.000Z,31
2018-05-15T03:38:25.000Z,32
2018-05-15T03:39:25.000Z,32
2018-05-15T03:41:25.000Z,31
2018-05-15T03:42:25.000Z,32
2018-05-15T03:43:25.000Z,32
2018-05-15T03:44:25.000Z,32
2018-05-15T03:45:25.000Z,32
2018-05-15T03:46:25.000Z,32
2018-05-15T03:47:25.000Z,32
2018-05-15T03:48:25.000Z,32
2018-05-15T03:50:25.000Z,33
2018-05-15T03:51:25.000Z,33
2018-05-15T03:52:25.000Z,34
2018-05-15T03:53:25.000Z,34
2018-05-15T03:54:25.000Z,34
2018-05-15T03:55:25.000Z,34
2018-05-15T03:56:25.000Z,34
2018-05-15T03:57:25.000Z,34
2018-05-15T03:59:25.000Z,34
2018-05-15T04:00:25.000Z,35
2018-05-15T04:01:25.000Z,35
2018-05-15T04:02:25.000Z,35
2018-05-15T04:03:24.000Z,35
2018-05-15T04:04:24.000Z,35
2018-05-15T04:05:24.000Z,35
2018-05-15T04:06:24.000Z,35
2018-05-15T04:08:24.000Z,35
2018-05-15T04:09:24.000Z,35
2018-05-15T04:11:24.000Z,35
2018-05-15T04:12:24.000Z,35
2018-05-15T04:13:24.000Z,35
2018-05-15T04:15:24.000Z,35
2018-05-15T04:16:24.000Z,35
2018-05-15T04:17:24.000Z,35
2018-05-15T04:19:24.000Z,35
2018-05-15T04:20:24.000Z,35
2018-05-15T04:21:24.000Z,35
2018-05-15T04:22:24.000Z,35
2018-05-15T04:23:24.000Z,35
2018-05-15T04:24:24.000Z,35
2018-05-15T04:25:24.000Z,35
2018-05-15T04:26:24.000Z,34
2018-05-15T04:27:24.000Z,34
2018-05-15T04:28:24.000Z,34
2018-05-15T04:29:24.000Z,34
2018-05-15T04:30:24.000Z,34
2018-05-15T04:31:24.000Z,34
2018-05-15T04:32:24.000Z,34
2018-05-15T04:33:24.000Z,34
2018-05-15T04:34:24.000Z,34
2018-05-15T04:35:24.000Z,34
2018-05-15T04:36:24.000Z,34
2018-05-15T04:39:25.000Z,34
2018-05-15T04:40:25.000Z,34
2018-05-15T04:41:25.000Z,34
2018-05-15T04:42:25.000Z,34
2018-05-15T04:43:25.000Z,34
2018-05-15T04:44:25.000Z,34
2018-05-15T04:45:25.000Z,33
2018-05-15T04:46:25.000Z,34
2018-05-15T04:47:25.000Z,33
2018-05-15T04:48:25.000Z,33
2018-05-15T04:49:25.000Z,33
2018-05-15T04:51:25.000Z,33
2018-05-15T04:52:25.000Z,33
2018-05-15T04:53:25.000Z,33
2018-05-15T04:54:25.000Z,33
2018-05-15T04:55:25.000Z,33
2018-05-15T04:57:25.000Z,33
2018-05-15T04:58:25.000Z,33
2018-05-15T04:59:25.000Z,33
2018-05-15T05:00:25.000Z,33
2018-05-15T05:01:25.000Z,32
2018-05-15T05:02:25.000Z,32
2018-05-15T05:04:25.000Z,32
2018-05-15T05:05:25.000Z,32
2018-05-15T05:06:24.000Z,33
2018-05-15T05:07:24.000Z,32
2018-05-15T05:08:24.000Z,32
2018-05-15T05:09:24.000Z,32
2018-05-15T05:10:24.000Z,32
2018-05-15T05:11:24.000Z,32
2018-05-15T05:12:24.000Z,32
2018-05-15T05:13:24.000Z,33
2018-05-15T05:14:24.000Z,32
2018-05-15T05:15:24.000Z,32
2018-05-15T05:17:24.000Z,32
2018-05-15T05:18:24.000Z,32
2018-05-15T05:19:24.000Z,32
2018-05-15T05:20:24.000Z,32
2018-05-15T05:21:24.000Z,32
2018-05-15T05:22:24.000Z,32
2018-05-15T05:23:24.000Z,32
2018-05-15T05:24:24.000Z,32
2018-05-15T05:25:24.000Z,32
2018-05-15T05:26:24.000Z,32
2018-05-15T05:28:24.000Z,32
2018-05-15T05:30:24.000Z,32
2018-05-15T05:31:24.000Z,32
2018-05-15T05:32:24.000Z,32
2018-05-15T05:34:24.000Z,31
2018-05-15T05:35:24.000Z,32
2018-05-15T05:36:24.000Z,32
2018-05-15T05:38:24.000Z,31
2018-05-15T05:39:24.000Z,31
2018-05-15T05:40:24.000Z,31
2018-05-15T05:41:24.000Z,31
2018-05-15T05:42:24.000Z,31
2018-05-15T05:44:24.000Z,31
2018-05-15T05:45:24.000Z,31
2018-05-15T05:46:24.000Z,31
2018-05-15T05:47:24.000Z,31
2018-05-15T05:48:24.000Z,31
2018-05-15T05:49:24.000Z,31
2018-05-15T05:50:24.000Z,31
2018-05-15T05:51:24.000Z,31
2018-05-15T05:52:24.000Z,31
2018-05-15T05:53:24.000Z,31
2018-05-15T05:54:24.000Z,31
2018-05-15T05:55:24.000Z,31
2018-05-15T05:56:24.000Z,31
2018-05-15T05:57:24.000Z,31
2018-05-15T05:59:24.000Z,30
2018-05-15T06:01:24.000Z,30
2018-05-15T06:02:24.000Z,30
2018-05-15T06:03:24.000Z,31
2018-05-15T06:04:24.000Z,30
2018-05-15T06:06:24.000Z,30
2018-05-15T06:07:24.000Z,30
2018-05-15T06:08:24.000Z,30
2018-05-15T06:10:25.000Z,30
2018-05-15T06:11:25.000Z,30
2018-05-15T06:12:25.000Z,30
2018-05-15T06:14:25.000Z,30
2018-05-15T06:15:25.000Z,30
2018-05-15T06:17:25.000Z,30
2018-05-15T06:18:25.000Z,30
2018-05-15T06:19:25.000Z,30
2018-05-15T06:20:25.000Z,30
2018-05-15T06:21:25.000Z,30
2018-05-15T06:23:25.000Z,30
2018-05-15T06:24:25.000Z,30
2018-05-15T06:25:25.000Z,30
2018-05-15T06:26:25.000Z,30
2018-05-15T06:27:25.000Z,30
2018-05-15T06:28:25.000Z,30
2018-05-15T06:29:25.000Z,30
2018-05-15T06:30:25.000Z,29
2018-05-15T06:32:25.000Z,29
2018-05-15T06:33:25.000Z,29
2018-05-15T06:34:25.000Z,29
2018-05-15T06:36:25.000Z,29
2018-05-15T06:37:25.000Z,29
2018-05-15T06:38:25.000Z,29
2018-05-15T06:39:25.000Z,29
2018-05-15T06:40:25.000Z,29
2018-05-15T06:41:25.000Z,29
2018-05-15T06:42:25.000Z,29
2018-05-15T06:43:25.000Z,29
2018-05-15T06:44:25.000Z,29
2018-05-15T06:45:25.000Z,29
2018-05-15T06:46:25.000Z,29
2018-05-15T06:47:25.000Z,29
2018-05-15T06:49:25.000Z,29
2018-05-15T06:50:25.000Z,29
2018-05-15T06:51:25.000Z,29
2018-05-15T06:52:25.000Z,29
2018-05-15T06:53:25.000Z,29
2018-05-15T06:55:25.000Z,29
2018-05-15T06:56:25.000Z,29
2018-05-15T06:57:25.000Z,29
2018-05-15T06:58:25.000Z,29
2018-05-15T06:59:25.000Z,29
2018-05-15T07:00:25.000Z,29
2018-05-15T07:01:25.000Z,29
2018-05-15T07:02:25.000Z,29
2018-05-15T07:03:25.000Z,29
2018-05-15T07:04:25.000Z,29
2018-05-15T07:05:25.000Z,29
2018-05-15T07:06:25.000Z,29
2018-05-15T07:07:25.000Z,29
2018-05-15T07:08:25.000Z,29
2018-05-15T07:09:25.000Z,29
2018-05-15T07:10:25.000Z,29
2018-05-15T07:11:25.000Z,29
2018-05-15T07:12:25.000Z,29
2018-05-15T07:13:24.000Z,29
2018-05-15T07:14:24.000Z,28
2018-05-15T07:15:24.000Z,28
2018-05-15T07:16:24.000Z,28
2018-05-15T07:17:24.000Z,28
2018-05-15T07:18:24.000Z,28
2018-05-15T07:20:24.000Z,28
2018-05-15T07:21:24.000Z,28
2018-05-15T07:22:24.000Z,28
2018-05-15T07:23:24.000Z,28
2018-05-15T07:24:24.000Z,28
2018-05-15T07:25:24.000Z,28
2018-05-15T07:26:24.000Z,28
2018-05-15T07:27:24.000Z,28
2018-05-15T07:28:24.000Z,28
2018-05-15T07:29:24.000Z,28
2018-05-15T07:30:24.000Z,28
2018-05-15T07:31:24.000Z,28
2018-05-15T07:32:24.000Z,28
2018-05-15T07:33:24.000Z,28
2018-05-15T07:34:24.000Z,28
2018-05-15T07:35:24.000Z,28
2018-05-15T07:36:24.000Z,28
2018-05-15T07:37:24.000Z,28
2018-05-15T07:38:24.000Z,27
2018-05-15T07:40:24.000Z,27
2018-05-15T07:41:24.000Z,27
2018-05-15T07:43:24.000Z,27
2018-05-15T07:44:24.000Z,27
2018-05-15T07:45:24.000Z,28
2018-05-15T07:46:24.000Z,27
2018-05-15T07:48:24.000Z,27
2018-05-15T07:49:24.000Z,27
2018-05-15T07:50:24.000Z,27
2018-05-15T07:51:24.000Z,27
2018-05-15T07:52:24.000Z,27
2018-05-15T08:35:59.000Z,30
2018-05-15T08:36:59.000Z,30
2018-05-15T08:37:59.000Z,30
2018-05-15T08:38:59.000Z,30
2018-05-15T08:39:59.000Z,30
2018-05-15T08:41:59.000Z,29
2018-05-15T08:42:59.000Z,29
2018-05-15T08:43:59.000Z,29
2018-05-15T08:44:59.000Z,29
2018-05-15T08:45:59.000Z,29
2018-05-15T08:46:59.000Z,29
2018-05-15T08:47:59.000Z,29
2018-05-15T08:49:59.000Z,29
2018-05-15T08:51:59.000Z,29
2018-05-15T08:52:59.000Z,29
2018-05-15T08:53:59.000Z,29
2018-05-15T08:54:59.000Z,29
2018-05-15T08:55:59.000Z,29
2018-05-15T08:56:59.000Z,29
2018-05-15T08:57:59.000Z,29
2018-05-15T08:58:59.000Z,29
2018-05-15T08:59:59.000Z,29
2018-05-15T09:00:59.000Z,29
2018-05-15T09:01:59.000Z,28
2018-05-15T09:02:59.000Z,29
2018-05-15T09:03:59.000Z,29
2018-05-15T09:04:59.000Z,29
2018-05-15T09:05:59.000Z,29
2018-05-15T09:06:59.000Z,29
2018-05-15T09:07:59.000Z,29
2018-05-15T09:08:59.000Z,28
2018-05-15T09:10:59.000Z,28
2018-05-15T09:11:59.000Z,29
2018-05-15T09:13:59.000Z,29
2018-05-15T09:14:59.000Z,29
2018-05-15T09:15:59.000Z,29
2018-05-15T09:17:59.000Z,28
2018-05-15T09:18:59.000Z,29
2018-05-15T09:19:59.000Z,29
2018-05-15T09:20:59.000Z,29
2018-05-15T09:21:59.000Z,28
2018-05-15T09:22:59.000Z,29
2018-05-15T09:24:59.000Z,28
2018-05-15T09:25:59.000Z,29
2018-05-15T09:26:59.000Z,29
2018-05-15T09:27:59.000Z,29
2018-05-15T09:28:59.000Z,29
2018-05-15T09:29:59.000Z,29
2018-05-15T09:30:59.000Z,29
2018-05-15T09:31:59.000Z,28
2018-05-15T09:32:59.000Z,29
2018-05-15T09:34:59.000Z,28
2018-05-15T09:35:59.000Z,29
2018-05-15T09:36:59.000Z,29
2018-05-15T09:37:59.000Z,29
2018-05-15T09:38:59.000Z,29
2018-05-15T09:39:59.000Z,28
2018-05-15T09:40:59.000Z,28
2018-05-15T09:41:59.000Z,28
2018-05-15T09:42:59.000Z,28
2018-05-15T09:43:59.000Z,28
2018-05-15T09:45:59.000Z,28
2018-05-15T09:46:59.000Z,28
2018-05-15T09:47:59.000Z,28
2018-05-15T09:48:59.000Z,28
2018-05-15T09:49:59.000Z,28
2018-05-15T09:50:59.000Z,28
2018-05-15T09:52:59.000Z,28
2018-05-15T09:53:59.000Z,28
2018-05-15T09:54:59.000Z,28
2018-05-15T09:56:59.000Z,28
2018-05-15T09:57:59.000Z,28
2018-05-15T09:58:59.000Z,28
2018-05-15T09:59:59.000Z,28
2018-05-15T10:00:59.000Z,28
2018-05-15T10:01:59.000Z,28
2018-05-15T10:02:59.000Z,28
2018-05-15T10:03:59.000Z,28
2018-05-15T10:05:59.000Z,28
2018-05-15T10:06:59.000Z,28
2018-05-15T10:07:59.000Z,28
2018-05-15T10:08:59.000Z,28
2018-05-15T10:09:59.000Z,28
2018-05-15T10:10:59.000Z,28
2018-05-15T10:11:59.000Z,28
2018-05-15T10:12:59.000Z,28
2018-05-15T10:13:59.000Z,28
2018-05-15T10:14:59.000Z,28
2018-05-15T10:15:59.000Z,28
2018-05-15T10:16:59.000Z,28
2018-05-15T10:18:59.000Z,28
2018-05-15T10:19:59.000Z,28
2018-05-15T10:20:59.000Z,28
2018-05-15T10:21:59.000Z,28
2018-05-15T10:22:59.000Z,28
2018-05-15T10:23:59.000Z,29
2018-05-15T10:24:59.000Z,29
2018-05-15T10:25:59.000Z,28
2018-05-15T10:26:59.000Z,28
2018-05-15T10:27:59.000Z,28
2018-05-15T10:28:59.000Z,28
2018-05-15T10:30:59.000Z,28
2018-05-15T10:31:59.000Z,28
2018-05-15T10:32:59.000Z,28
2018-05-15T10:34:59.000Z,28
2018-05-15T10:35:59.000Z,28
2018-05-15T10:36:59.000Z,28
2018-05-15T10:37:59.000Z,28
2018-05-15T10:38:59.000Z,28
2018-05-15T10:39:59.000Z,28
2018-05-15T10:40:59.000Z,28
2018-05-15T10:41:59.000Z,28
2018-05-15T10:42:59.000Z,28
2018-05-15T10:43:59.000Z,28
2018-05-15T10:44:59.000Z,28
2018-05-15T10:45:59.000Z,28
2018-05-15T10:46:59.000Z,28
2018-05-15T10:47:59.000Z,28
2018-05-15T10:48:59.000Z,28
2018-05-15T10:49:59.000Z,28
2018-05-15T10:50:59.000Z,28
2018-05-15T10:51:59.000Z,28
2018-05-15T10:52:59.000Z,28
2018-05-15T10:53:59.000Z,28
2018-05-15T10:54:59.000Z,28
2018-05-15T10:55:59.000Z,28
2018-05-15T10:56:59.000Z,28
2018-05-15T10:57:59.000Z,28
2018-05-15T10:58:59.000Z,28
2018-05-15T10:59:59.000Z,28
2018-05-15T11:01:59.000Z,28
2018-05-15T11:03:59.000Z,28
2018-05-15T11:04:59.000Z,28
2018-05-15T11:05:59.000Z,28
2018-05-15T11:06:59.000Z,28
2018-05-15T11:07:59.000Z,28
2018-05-15T11:08:59.000Z,28
2018-05-15T11:09:59.000Z,28
2018-05-15T11:10:59.000Z,28
2018-05-15T11:11:59.000Z,28
2018-05-15T11:12:59.000Z,27
2018-05-15T11:13:59.000Z,28
2018-05-15T11:14:59.000Z,27
2018-05-15T11:15:59.000Z,28
2018-05-15T11:16:59.000Z,27
2018-05-15T11:17:59.000Z,27
2018-05-15T11:18:59.000Z,27
2018-05-15T11:19:59.000Z,27
2018-05-15T11:20:59.000Z,27
2018-05-15T11:22:59.000Z,27
2018-05-15T11:24:59.000Z,27
2018-05-15T11:25:59.000Z,27
2018-05-15T11:27:59.000Z,27
2018-05-15T11:28:59.000Z,27
2018-05-15T11:29:59.000Z,27
2018-05-15T11:31:59.000Z,27
2018-05-15T11:32:59.000Z,27
2018-05-15T11:33:59.000Z,27
2018-05-15T11:34:59.000Z,27
2018-05-15T11:35:59.000Z,27
2018-05-15T11:37:59.000Z,27
2018-05-15T11:38:59.000Z,27
2018-05-15T11:39:59.000Z,27
2018-05-15T11:40:59.000Z,27
2018-05-15T11:41:59.000Z,27
2018-05-15T11:42:59.000Z,27
2018-05-15T11:43:59.000Z,26
2018-05-15T11:44:59.000Z,26
2018-05-15T11:45:59.000Z,26
2018-05-15T11:46:59.000Z,26
2018-05-15T11:47:59.000Z,26
2018-05-15T11:48:59.000Z,26
2018-05-15T11:49:59.000Z,26
2018-05-15T11:50:59.000Z,26
2018-05-15T11:51:59.000Z,25
2018-05-15T11:52:59.000Z,24
2018-05-15T11:53:59.000Z,23
2018-05-15T11:54:59.000Z,23
2018-05-15T11:55:59.000Z,22
2018-05-15T11:56:59.000Z,22
2018-05-15T11:57:59.000Z,21
2018-05-15T11:58:59.000Z,21
2018-05-15T11:59:59.000Z,21
2018-05-15T12:00:59.000Z,21
2018-05-15T12:01:59.000Z,21
2018-05-15T12:02:59.000Z,22
2018-05-15T12:03:59.000Z,22
2018-05-15T12:04:59.000Z,22
2018-05-15T12:05:59.000Z,22
2018-05-15T12:06:59.000Z,23
2018-05-15T12:07:59.000Z,23
2018-05-15T12:08:59.000Z,23
2018-05-15T12:09:59.000Z,23
2018-05-15T12:10:59.000Z,23
2018-05-15T12:12:59.000Z,24
2018-05-15T12:13:59.000Z,24
2018-05-15T12:14:59.000Z,24
2018-05-15T12:16:59.000Z,24
2018-05-15T12:17:59.000Z,24
2018-05-15T12:18:59.000Z,24
2018-05-15T12:20:59.000Z,24
2018-05-15T12:21:59.000Z,25
2018-05-15T12:22:59.000Z,24
2018-05-15T12:23:59.000Z,25
2018-05-15T12:24:59.000Z,25
2018-05-15T12:26:59.000Z,25
2018-05-15T12:27:59.000Z,25
2018-05-15T12:28:59.000Z,25
2018-05-15T12:29:59.000Z,25
2018-05-15T12:31:59.000Z,25
2018-05-15T12:32:59.000Z,25
2018-05-15T12:33:59.000Z,25
2018-05-15T12:35:59.000Z,25
2018-05-15T12:36:59.000Z,25
2018-05-15T12:38:59.000Z,25
2018-05-15T12:39:59.000Z,25
2018-05-15T12:40:59.000Z,25
2018-05-15T12:41:59.000Z,25
2018-05-15T12:42:59.000Z,25
2018-05-15T12:43:59.000Z,25
2018-05-15T12:44:59.000Z,25
2018-05-15T12:45:59.000Z,25
2018-05-15T12:47:59.000Z,25
2018-05-15T12:48:59.000Z,25
2018-05-15T12:49:59.000Z,25
2018-05-15T12:50:59.000Z,25
2018-05-15T12:52:59.000Z,25
2018-05-15T12:54:59.000Z,25
2018-05-15T12:58:45.000Z,25
2018-05-15T12:59:45.000Z,25
2018-05-15T13:00:45.000Z,25
2018-05-15T13:01:45.000Z,25
2018-05-15T13:02:45.000Z,25
2018-05-15T13:03:45.000Z,26
2018-05-15T13:04:45.000Z,26
2018-05-15T13:05:45.000Z,25
2018-05-15T13:07:45.000Z,25
2018-05-15T13:08:45.000Z,25
2018-05-15T13:09:45.000Z,25
2018-05-15T13:10:45.000Z,25
2018-05-15T13:11:45.000Z,25
2018-05-15T13:12:45.000Z,25
2018-05-15T13:13:45.000Z,25
2018-05-15T13:14:45.000Z,25
2018-05-15T13:15:45.000Z,25
2018-05-15T13:16:45.000Z,25
2018-05-15T13:17:45.000Z,25
2018-05-15T13:19:45.000Z,25
2018-05-15T13:21:45.000Z,25
2018-05-15T13:22:45.000Z,25
2018-05-15T13:23:45.000Z,25
2018-05-15T13:24:45.000Z,25
2018-05-15T13:25:45.000Z,25
2018-05-15T13:26:45.000Z,25
2018-05-15T13:27:45.000Z,25
2018-05-15T13:28:45.000Z,25
2018-05-15T13:29:45.000Z,25
2018-05-15T13:31:45.000Z,25
2018-05-15T13:32:45.000Z,25
2018-05-15T13:34:45.000Z,25
2018-05-15T13:36:45.000Z,25
2018-05-15T13:37:45.000Z,25
2018-05-15T13:38:45.000Z,25
2018-05-15T13:39:45.000Z,25
2018-05-15T13:40:45.000Z,25
2018-05-15T13:41:45.000Z,25
2018-05-15T13:42:45.000Z,25
2018-05-15T13:44:45.000Z,25
2018-05-15T13:45:45.000Z,25
2018-05-15T13:46:45.000Z,25
2018-05-15T13:47:45.000Z,25
2018-05-15T13:48:45.000Z,25
2018-05-15T13:49:45.000Z,26
2018-05-15T13:51:45.000Z,25
2018-05-15T13:52:45.000Z,26
2018-05-15T13:53:45.000Z,26
2018-05-15T13:54:45.000Z,26
2018-05-15T13:55:45.000Z,26
2018-05-15T13:56:45.000Z,26
2018-05-15T13:57:45.000Z,26
2018-05-15T13:58:45.000Z,26
2018-05-15T13:59:45.000Z,25
2018-05-15T14:00:45.000Z,26
2018-05-15T14:02:45.000Z,25
2018-05-15T14:03:45.000Z,26
2018-05-15T14:04:45.000Z,26
2018-05-15T14:05:45.000Z,26
2018-05-15T14:06:45.000Z,26
2018-05-15T14:07:45.000Z,26
2018-05-15T14:08:45.000Z,26
2018-05-15T14:09:45.000Z,26
2018-05-15T14:10:45.000Z,26
2018-05-15T14:11:45.000Z,25
2018-05-15T14:12:45.000Z,26
2018-05-15T14:13:45.000Z,25
2018-05-15T14:14:45.000Z,26
2018-05-15T14:15:45.000Z,25
2018-05-15T14:16:45.000Z,26
2018-05-15T14:17:45.000Z,26
2018-05-15T14:18:45.000Z,26
2018-05-15T14:19:45.000Z,26
2018-05-15T14:20:45.000Z,26
2018-05-15T14:21:45.000Z,26
2018-05-15T14:22:45.000Z,26
2018-05-15T14:24:45.000Z,26
2018-05-15T14:25:45.000Z,26
2018-05-15T14:26:45.000Z,26
2018-05-15T14:27:45.000Z,26
2018-05-15T14:28:45.000Z,26
2018-05-15T14:29:45.000Z,26
2018-05-15T14:30:45.000Z,26
2018-05-15T14:31:45.000Z,26
2018-05-15T14:32:45.000Z,26
2018-05-15T14:34:45.000Z,26
2018-05-15T14:35:45.000Z,26
2018-05-15T14:36:45.000Z,26
2018-05-15T14:37:45.000Z,26
2018-05-15T14:38:45.000Z,26
2018-05-15T14:39:45.000Z,26
2018-05-15T14:40:45.000Z,26
2018-05-15T14:41:45.000Z,26
2018-05-15T14:42:45.000Z,26
2018-05-15T14:43:45.000Z,26
2018-05-15T14:45:45.000Z,26
2018-05-15T14:46:45.000Z,26
2018-05-15T14:47:45.000Z,26
2018-05-15T14:48:45.000Z,26
2018-05-15T14:49:45.000Z,26
2018-05-15T14:50:45.000Z,26
2018-05-15T14:51:45.000Z,26
2018-05-15T14:52:45.000Z,26
2018-05-15T14:53:45.000Z,26
2018-05-15T14:55:45.000Z,26
2018-05-15T14:56:45.000Z,26
2018-05-15T14:57:45.000Z,26
2018-05-15T14:58:45.000Z,26
2018-05-15T14:59:45.000Z,26
2018-05-15T15:00:45.000Z,26
2018-05-15T15:01:45.000Z,26
2018-05-15T15:02:45.000Z,26
2018-05-15T15:03:45.000Z,26
2018-05-15T15:05:45.000Z,26
2018-05-15T15:06:45.000Z,26
2018-05-15T15:07:45.000Z,26
2018-05-15T15:08:45.000Z,26
2018-05-15T15:09:45.000Z,26
2018-05-15T15:11:45.000Z,26
2018-05-15T15:12:45.000Z,26
2018-05-15T15:13:45.000Z,26
2018-05-15T15:14:45.000Z,26
2018-05-15T15:15:45.000Z,26
2018-05-15T15:16:45.000Z,26
2018-05-15T15:17:45.000Z,26
2018-05-15T15:19:45.000Z,26
2018-05-15T15:20:45.000Z,26
2018-05-15T15:21:45.000Z,26
2018-05-15T15:22:45.000Z,26
2018-05-15T15:23:45.000Z,26
2018-05-15T15:24:45.000Z,26
2018-05-15T15:25:45.000Z,26
2018-05-15T15:26:45.000Z,26
2018-05-15T15:27:45.000Z,26
2018-05-15T15:28:45.000Z,26
2018-05-15T15:30:45.000Z,26
2018-05-15T15:31:45.000Z,26
2018-05-15T15:32:45.000Z,26
2018-05-15T15:33:45.000Z,26
2018-05-15T15:34:45.000Z,26
2018-05-15T15:35:45.000Z,26
2018-05-15T15:36:45.000Z,26
2018-05-15T15:37:45.000Z,26
2018-05-15T15:39:45.000Z,26
2018-05-15T15:40:45.000Z,26
2018-05-15T15:41:45.000Z,26
2018-05-15T15:42:45.000Z,27
2018-05-15T15:43:45.000Z,27
2018-05-15T15:44:45.000Z,27
2018-05-15T15:46:45.000Z,26
2018-05-15T15:47:45.000Z,27
2018-05-15T15:48:45.000Z,26
2018-05-15T15:50:45.000Z,26
2018-05-15T15:51:45.000Z,27
2018-05-15T15:53:45.000Z,27
2018-05-15T15:54:45.000Z,27
2018-05-15T15:55:45.000Z,27
2018-05-15T15:56:45.000Z,27
2018-05-15T15:58:45.000Z,27
2018-05-15T15:59:45.000Z,27
2018-05-15T16:00:45.000Z,27
2018-05-15T16:01:45.000Z,27
2018-05-15T16:02:45.000Z,27
2018-05-15T16:03:45.000Z,27
2018-05-15T16:04:45.000Z,27
2018-05-15T16:05:45.000Z,27
2018-05-15T16:06:45.000Z,27
2018-05-15T16:07:45.000Z,27
2018-05-15T16:08:45.000Z,27
2018-05-15T16:09:45.000Z,27
2018-05-15T16:10:45.000Z,27
2018-05-15T16:11:45.000Z,27
2018-05-15T16:12:45.000Z,27
2018-05-15T16:13:45.000Z,27
2018-05-15T16:14:45.000Z,27
2018-05-15T16:15:45.000Z,27
2018-05-15T16:16:45.000Z,27
2018-05-15T16:17:45.000Z,27
2018-05-15T16:18:45.000Z,27
2018-05-15T16:19:45.000Z,27
2018-05-15T16:20:45.000Z,27
2018-05-15T16:21:45.000Z,27
2018-05-15T16:22:45.000Z,27
2018-05-15T16:23:45.000Z,27
2018-05-15T16:24:45.000Z,27
2018-05-15T16:25:45.000Z,27
2018-05-15T16:26:45.000Z,27
2018-05-15T16:28:45.000Z,27
2018-05-15T16:29:45.000Z,27
2018-05-15T16:30:45.000Z,27
2018-05-15T16:31:45.000Z,27
2018-05-15T16:32:45.000Z,27
2018-05-15T16:33:45.000Z,27
2018-05-15T16:34:45.000Z,27
2018-05-15T16:35:45.000Z,27
2018-05-15T16:36:45.000Z,27
2018-05-15T16:37:45.000Z,27
2018-05-15T16:39:45.000Z,27
2018-05-15T16:41:45.000Z,27
2018-05-15T16:42:45.000Z,27
2018-05-15T16:43:45.000Z,27
2018-05-15T16:44:44.000Z,27
2018-05-15T16:45:44.000Z,27
2018-05-15T16:46:44.000Z,27
2018-05-15T16:47:44.000Z,27
2018-05-15T16:48:44.000Z,27
2018-05-15T16:49:44.000Z,27
2018-05-15T16:50:44.000Z,27
2018-05-15T16:51:44.000Z,27
2018-05-15T16:53:44.000Z,27
2018-05-15T16:54:44.000Z,27
2018-05-15T16:55:44.000Z,27
2018-05-15T16:57:44.000Z,27
2018-05-15T16:58:44.000Z,27
2018-05-15T16:59:44.000Z,27
2018-05-15T17:01:44.000Z,27
2018-05-15T17:02:44.000Z,27
2018-05-15T17:03:44.000Z,27
2018-05-15T17:05:44.000Z,27
2018-05-15T17:06:44.000Z,27
2018-05-15T17:07:44.000Z,27
2018-05-15T17:08:44.000Z,27
2018-05-15T17:09:44.000Z,27